Time;durP1;ratioP1;P1;durP2;ratioP2;P2;SDS_P1;SDS_P2;PMS_P1;PMS_P2;Temp;Humidity;BMP_temperature;BMP_pressure;BME280_temperature;BME280_humidity;BME280_pressure;Samples;Min_cycle;Max_cycle;Signal;HPM_P1;HPM_P2
2023/07/03 00:01:41;;;;;;;17.20;7.15;;;16.50;99.90;;;;;;5069837;28;20064;-83
2023/07/03 00:04:10;;;;;;;17.25;6.80;;;16.50;99.90;;;;;;5050336;28;20710;-83
2023/07/03 00:06:37;;;;;;;12.05;4.13;;;16.50;99.90;;;;;;5053886;28;20033;-83
2023/07/03 00:09:03;;;;;;;18.38;7.72;;;16.50;99.90;;;;;;5069939;28;20036;-83
2023/07/03 00:11:29;;;;;;;12.75;4.43;;;16.50;99.90;;;;;;5070026;28;20032;-83
2023/07/03 00:13:54;;;;;;;19.55;6.82;;;16.50;99.90;;;;;;5053128;28;20119;-83
2023/07/03 00:16:20;;;;;;;15.98;6.00;;;16.50;99.90;;;;;;5069687;28;20514;-83
2023/07/03 00:18:47;;;;;;;16.77;5.57;;;16.40;99.90;;;;;;5050910;28;20544;-83
2023/07/03 00:21:13;;;;;;;16.80;4.90;;;16.40;99.90;;;;;;5052308;28;20115;-83
2023/07/03 00:23:39;;;;;;;18.38;7.43;;;16.40;99.90;;;;;;5052281;28;20194;-83
2023/07/03 00:26:05;;;;;;;18.75;7.75;;;16.40;99.90;;;;;;5069958;28;20032;-83
2023/07/03 00:28:30;;;;;;;15.65;5.45;;;16.40;99.90;;;;;;5070089;28;20028;-82
2023/07/03 00:30:56;;;;;;;21.55;7.65;;;16.40;99.90;;;;;;5052019;28;20120;-83
2023/07/03 00:33:22;;;;;;;17.90;7.22;;;16.40;99.90;;;;;;5052696;28;20465;-83
2023/07/03 00:35:47;;;;;;;15.38;5.07;;;16.40;99.90;;;;;;5069133;28;20042;-83
2023/07/03 00:38:13;;;;;;;14.35;4.60;;;16.40;99.90;;;;;;5052866;28;20513;-83
2023/07/03 00:40:38;;;;;;;19.33;7.53;;;16.30;99.90;;;;;;5068933;28;20482;-83
2023/07/03 00:43:04;;;;;;;17.52;5.15;;;16.30;99.90;;;;;;5069441;28;20029;-83
2023/07/03 00:45:32;;;;;;;21.80;6.70;;;16.30;99.90;;;;;;5069554;28;20105;-83
2023/07/03 00:47:58;;;;;;;18.92;6.80;;;16.40;99.90;;;;;;5052899;28;20044;-83
2023/07/03 00:50:24;;;;;;;14.68;4.20;;;16.40;99.90;;;;;;5052811;28;20494;-82
2023/07/03 00:53:00;;;;;;;19.10;7.40;;;16.30;99.90;;;;;;5050570;28;20055;-83
2023/07/03 00:55:26;;;;;;;18.70;7.28;;;16.30;99.90;;;;;;5066745;28;20041;-82
2023/07/03 00:57:51;;;;;;;18.48;6.35;;;16.40;99.90;;;;;;5069412;28;20080;-83
2023/07/03 01:00:18;;;;;;;14.73;4.45;;;16.40;99.90;;;;;;5068565;28;20534;-83
2023/07/03 01:03:24;;;;;;;19.27;7.22;;;16.30;99.90;;;;;;5069559;28;20032;-83
2023/07/03 01:05:52;;;;;;;19.58;7.18;;;16.30;99.90;;;;;;5052718;28;20512;-83
2023/07/03 01:08:18;;;;;;;18.88;7.10;;;16.30;99.90;;;;;;5069872;28;20045;-83
2023/07/03 01:10:45;;;;;;;17.70;4.13;;;16.40;99.90;;;;;;5068569;28;20098;-82
2023/07/03 01:13:14;;;;;;;15.10;4.30;;;16.30;99.90;;;;;;5068856;28;20598;-83
2023/07/03 01:15:43;;;;;;;19.98;7.07;;;16.30;99.90;;;;;;5071603;28;20379;-83
2023/07/03 01:18:10;;;;;;;14.80;4.85;;;16.30;99.90;;;;;;5054851;28;20048;-82
2023/07/03 01:20:45;;;;;;;16.38;4.38;;;16.30;99.90;;;;;;5056128;28;20576;-83
2023/07/03 01:23:13;;;;;;;20.73;7.22;;;16.20;99.90;;;;;;5071240;28;20032;-83
2023/07/03 01:25:42;;;;;;;23.17;7.35;;;16.30;99.90;;;;;;5072776;28;20076;-83
2023/07/03 01:28:12;;;;;;;17.05;4.43;;;16.30;99.90;;;;;;5055998;28;20041;-83
2023/07/03 01:30:41;;;;;;;18.60;6.97;;;16.30;99.90;;;;;;5065409;28;20033;-83
2023/07/03 01:33:13;;;;;;;18.13;6.60;;;16.30;99.90;;;;;;5056112;28;20028;-83
2023/07/03 01:35:39;;;;;;;22.85;7.65;;;16.30;99.90;;;;;;5072771;28;20044;-83
2023/07/03 01:38:06;;;;;;;13.77;3.45;;;16.30;99.90;;;;;;5072211;28;20032;-83
2023/07/03 01:40:33;;;;;;;18.58;7.00;;;16.30;99.90;;;;;;5055483;28;20033;-83
2023/07/03 01:42:58;;;;;;;17.80;3.85;;;16.30;99.90;;;;;;5072533;28;20033;-83
2023/07/03 01:45:25;;;;;;;20.98;7.20;;;16.30;99.90;;;;;;5055792;28;20120;-83
2023/07/03 01:47:51;;;;;;;23.35;7.35;;;16.30;99.90;;;;;;5072955;28;20447;-83
2023/07/03 01:50:20;;;;;;;19.33;6.90;;;16.40;99.90;;;;;;5055685;28;20119;-83
2023/07/03 01:52:54;;;;;;;23.58;7.32;;;16.40;99.90;;;;;;5055973;28;20581;-83
2023/07/03 01:55:34;;;;;;;21.13;6.35;;;16.40;99.90;;;;;;5072544;28;20036;-83
2023/07/03 01:58:29;;;;;;;16.20;4.60;;;16.40;99.90;;;;;;5055280;28;20085;-83
2023/07/03 02:01:11;;;;;;;18.40;6.75;;;16.30;99.90;;;;;;5070709;28;20086;-83
2023/07/03 02:03:51;;;;;;;19.83;6.85;;;16.30;99.90;;;;;;5072861;28;20032;-83
2023/07/03 02:06:25;;;;;;;19.45;5.55;;;16.40;99.90;;;;;;5071434;28;20068;-83
2023/07/03 02:08:52;;;;;;;19.50;6.63;;;16.40;99.90;;;;;;5070963;28;20040;-83
2023/07/03 02:11:21;;;;;;;22.23;7.70;;;16.40;99.90;;;;;;5071902;28;20050;-83
2023/07/03 02:13:47;;;;;;;24.33;7.00;;;16.40;99.90;;;;;;5071842;28;20036;-83
2023/07/03 02:16:15;;;;;;;24.88;8.05;;;16.40;99.90;;;;;;5072090;28;20040;-82
2023/07/03 02:18:46;;;;;;;20.15;5.05;;;16.40;99.90;;;;;;5054746;28;20045;-83
2023/07/03 02:21:13;;;;;;;23.02;7.22;;;16.30;99.90;;;;;;5051765;28;20029;-82
2023/07/03 02:23:40;;;;;;;25.05;7.22;;;16.40;99.90;;;;;;5035573;28;20486;-83
2023/07/03 02:26:06;;;;;;;21.33;7.47;;;16.40;99.90;;;;;;5063709;28;20174;-83
2023/07/03 02:28:32;;;;;;;17.73;4.85;;;16.40;99.90;;;;;;5072681;28;20127;-83
2023/07/03 02:30:57;;;;;;;24.60;7.38;;;16.40;99.90;;;;;;5072533;28;20888;-83
2023/07/03 02:33:23;;;;;;;22.75;4.63;;;16.40;99.90;;;;;;5055424;28;20055;-83
2023/07/03 02:35:48;;;;;;;21.67;5.32;;;16.40;99.90;;;;;;5052125;28;20694;-83
2023/07/03 02:38:15;;;;;;;24.60;7.20;;;16.40;99.90;;;;;;5071568;28;20429;-83
2023/07/03 02:40:41;;;;;;;23.67;7.88;;;16.40;99.90;;;;;;5055041;28;20529;-83
2023/07/03 02:43:08;;;;;;;21.75;7.13;;;16.40;99.90;;;;;;5055249;28;20072;-83
2023/07/03 02:45:38;;;;;;;15.25;4.15;;;16.40;99.90;;;;;;5055006;28;20036;-83
2023/07/03 02:48:05;;;;;;;20.52;6.40;;;16.40;99.90;;;;;;5055675;28;20063;-83
2023/07/03 02:50:31;;;;;;;19.80;4.53;;;16.40;99.90;;;;;;5071859;28;20040;-83
2023/07/03 02:52:56;;;;;;;22.60;4.38;;;16.40;99.90;;;;;;5070677;28;20033;-83
2023/07/03 02:55:22;;;;;;;31.58;8.10;;;16.30;99.90;;;;;;5071722;28;20537;-83
2023/07/03 02:57:47;;;;;;;20.73;6.85;;;16.30;99.90;;;;;;5071539;28;20044;-83
2023/07/03 03:00:13;;;;;;;19.80;4.20;;;16.30;99.90;;;;;;5071660;28;20032;-82
2023/07/03 03:02:39;;;;;;;24.27;7.03;;;16.20;99.90;;;;;;5071052;28;20047;-83
2023/07/03 03:05:05;;;;;;;23.65;6.95;;;16.10;99.90;;;;;;5071471;28;20128;-83
2023/07/03 03:07:31;;;;;;;23.20;7.22;;;16.10;99.90;;;;;;5071815;28;20036;-84
2023/07/03 03:09:56;;;;;;;18.85;6.07;;;16.00;99.90;;;;;;5071724;28;20044;-82
2023/07/03 03:12:22;;;;;;;21.33;6.40;;;15.90;99.90;;;;;;5071736;28;20616;-83
2023/07/03 03:14:48;;;;;;;19.08;4.07;;;15.80;99.90;;;;;;5054642;28;20033;-83
2023/07/03 03:17:14;;;;;;;21.02;5.75;;;15.70;99.90;;;;;;5071057;28;20406;-82
2023/07/03 03:19:40;;;;;;;13.82;4.05;;;15.60;99.90;;;;;;5070990;28;20075;-83
2023/07/03 03:22:05;;;;;;;21.40;6.47;;;15.60;99.90;;;;;;5071041;28;20490;-83
2023/07/03 03:24:31;;;;;;;14.82;3.75;;;15.60;99.90;;;;;;5071570;28;20059;-83
2023/07/03 03:26:57;;;;;;;17.52;6.32;;;15.50;99.90;;;;;;5070935;28;20501;-82
2023/07/03 03:29:22;;;;;;;24.08;7.57;;;15.50;99.90;;;;;;5071466;28;20037;-82
2023/07/03 03:31:48;;;;;;;14.60;3.78;;;15.50;99.90;;;;;;5070796;28;20048;-83
2023/07/03 03:34:13;;;;;;;18.25;6.63;;;15.40;99.90;;;;;;5070950;28;20072;-82
2023/07/03 03:36:39;;;;;;;15.25;3.78;;;15.40;99.90;;;;;;5070901;28;20090;-82
2023/07/03 03:39:05;;;;;;;14.15;3.67;;;15.30;99.90;;;;;;5053240;28;20520;-82
2023/07/03 03:41:31;;;;;;;20.48;6.85;;;15.30;99.90;;;;;;5053887;28;20085;-82
2023/07/03 03:43:57;;;;;;;20.65;6.82;;;15.30;99.90;;;;;;5070588;28;20044;-83
2023/07/03 03:46:22;;;;;;;18.23;6.47;;;15.30;99.90;;;;;;5070236;28;20036;-83
2023/07/03 03:48:48;;;;;;;19.98;6.78;;;15.30;99.90;;;;;;5070923;28;20047;-82
2023/07/03 03:51:14;;;;;;;21.55;4.28;;;15.30;99.90;;;;;;5070869;28;20056;-82
2023/07/03 03:53:40;;;;;;;20.83;6.90;;;15.20;99.90;;;;;;5054077;28;20071;-83
2023/07/03 03:56:05;;;;;;;22.83;7.00;;;15.20;99.90;;;;;;5070359;28;20055;-83
2023/07/03 03:58:31;;;;;;;17.25;4.47;;;15.20;99.90;;;;;;5053799;28;20032;-82
2023/07/03 04:00:57;;;;;;;18.40;6.90;;;15.20;99.90;;;;;;5070086;28;20415;-83
2023/07/03 04:03:22;;;;;;;17.85;5.95;;;15.10;99.90;;;;;;5070153;28;20493;-83
2023/07/03 04:05:48;;;;;;;17.05;4.60;;;15.20;99.90;;;;;;5053536;28;20036;-83
2023/07/03 04:08:14;;;;;;;18.40;6.25;;;15.10;99.90;;;;;;5070835;28;20047;-83
2023/07/03 04:10:42;;;;;;;16.33;3.45;;;15.10;99.90;;;;;;5070691;28;20049;-82
2023/07/03 04:13:09;;;;;;;15.65;3.95;;;15.00;99.90;;;;;;5053647;28;20043;-82
2023/07/03 04:15:51;;;;;;;19.75;6.75;;;15.00;99.90;;;;;;5069958;28;20043;-83
2023/07/03 04:18:18;;;;;;;19.38;6.20;;;15.00;99.90;;;;;;5052863;28;20041;-82
2023/07/03 04:20:44;;;;;;;17.73;4.00;;;15.00;99.90;;;;;;5070058;28;20124;-83
2023/07/03 04:23:09;;;;;;;20.02;6.30;;;14.90;99.90;;;;;;5070073;28;20115;-82
2023/07/03 04:25:35;;;;;;;17.35;4.32;;;14.90;99.90;;;;;;5053179;28;20506;-82
2023/07/03 04:28:02;;;;;;;16.83;4.47;;;14.90;99.90;;;;;;5069970;28;20040;-82
2023/07/03 04:30:27;;;;;;;10.90;3.40;;;14.90;99.90;;;;;;5069838;28;20040;-82
2023/07/03 04:32:53;;;;;;;21.48;7.03;;;14.80;99.90;;;;;;5053562;28;20102;-83
2023/07/03 04:35:19;;;;;;;17.33;5.97;;;14.90;99.90;;;;;;5070040;28;20141;-83
2023/07/03 04:37:45;;;;;;;17.48;4.53;;;14.90;99.90;;;;;;5052648;28;20673;-82
2023/07/03 04:40:12;;;;;;;9.38;3.22;;;14.90;99.90;;;;;;5069583;28;20046;-83
2023/07/03 04:42:38;;;;;;;17.65;5.65;;;14.90;99.90;;;;;;5052635;28;20075;-83
2023/07/03 04:45:06;;;;;;;18.35;4.43;;;14.90;99.90;;;;;;5069357;28;20075;-83
2023/07/03 04:47:31;;;;;;;12.75;3.42;;;15.00;99.90;;;;;;5052862;28;20043;-82
2023/07/03 04:49:58;;;;;;;21.35;7.10;;;14.90;99.90;;;;;;5069470;28;20044;-83
2023/07/03 04:52:27;;;;;;;18.42;6.78;;;15.00;99.90;;;;;;5069797;28;20055;-82
2023/07/03 04:54:53;;;;;;;17.45;4.35;;;15.10;99.90;;;;;;5070019;28;20457;-82
2023/07/03 04:57:19;;;;;;;18.58;6.85;;;15.10;99.90;;;;;;5053068;28;20478;-82
2023/07/03 04:59:45;;;;;;;19.33;6.40;;;15.10;99.90;;;;;;5052284;28;20139;-83
2023/07/03 05:02:12;;;;;;;11.68;4.38;;;15.20;99.90;;;;;;5071037;28;20040;-83
2023/07/03 05:04:38;;;;;;;12.05;3.50;;;15.10;99.90;;;;;;5069276;28;20087;-83
2023/07/03 05:07:04;;;;;;;11.77;3.42;;;15.10;99.90;;;;;;5052908;28;20068;-82
2023/07/03 05:09:29;;;;;;;19.63;6.25;;;15.10;99.90;;;;;;5069717;28;20410;-83
2023/07/03 05:11:55;;;;;;;19.08;5.78;;;15.20;99.90;;;;;;5052979;28;20490;-82
2023/07/03 05:14:21;;;;;;;18.40;6.30;;;15.30;99.90;;;;;;5070815;28;20041;-83
2023/07/03 05:16:46;;;;;;;15.73;5.70;;;15.40;99.90;;;;;;5069312;28;20514;-82
2023/07/03 05:19:13;;;;;;;12.35;3.00;;;15.50;99.90;;;;;;5068971;28;20033;-83
2023/07/03 05:21:39;;;;;;;11.30;2.95;;;15.50;99.90;;;;;;5052522;28;20040;-83
2023/07/03 05:24:04;;;;;;;13.82;2.67;;;15.40;99.90;;;;;;5069261;28;20119;-82
2023/07/03 05:26:30;;;;;;;15.07;5.00;;;15.40;99.90;;;;;;5069489;28;20040;-82
2023/07/03 05:28:56;;;;;;;13.40;4.70;;;15.40;99.90;;;;;;5069398;28;20044;-82
2023/07/03 05:31:23;;;;;;;11.68;2.33;;;15.40;99.90;;;;;;5069654;28;20037;-83
2023/07/03 05:33:49;;;;;;;13.57;2.92;;;15.40;99.90;;;;;;5069631;28;20457;-83
2023/07/03 05:36:16;;;;;;;15.32;5.15;;;15.40;99.90;;;;;;5069447;28;20202;-83
2023/07/03 05:38:42;;;;;;;20.23;5.38;;;15.50;99.90;;;;;;5068167;28;20037;-83
2023/07/03 05:41:08;;;;;;;17.55;3.85;;;15.60;99.90;;;;;;5052382;28;20036;-83
2023/07/03 05:43:34;;;;;;;18.20;5.40;;;15.70;99.90;;;;;;5070509;28;20048;-83
2023/07/03 05:45:59;;;;;;;13.98;3.45;;;15.70;99.90;;;;;;5070741;28;20037;-83
2023/07/03 05:48:25;;;;;;;13.75;3.30;;;15.80;99.90;;;;;;5052290;28;20041;-83
2023/07/03 05:50:50;;;;;;;11.70;3.20;;;15.80;99.90;;;;;;5052274;28;20032;-83
2023/07/03 05:53:16;;;;;;;17.52;5.70;;;15.90;99.90;;;;;;5069069;28;20414;-83
2023/07/03 05:55:43;;;;;;;16.42;3.85;;;16.00;99.90;;;;;;5052525;28;20040;-83
2023/07/03 05:58:09;;;;;;;15.43;4.50;;;16.10;99.90;;;;;;5051949;28;20506;-83
2023/07/03 06:00:36;;;;;;;20.55;3.33;;;16.10;99.90;;;;;;5069391;28;20170;-83
2023/07/03 06:03:02;;;;;;;15.23;4.60;;;16.20;99.90;;;;;;5072017;28;20033;-83
2023/07/03 06:05:28;;;;;;;12.05;2.63;;;16.20;99.90;;;;;;5054012;28;20037;-83
2023/07/03 06:07:54;;;;;;;12.07;3.00;;;16.20;99.90;;;;;;5072179;28;20064;-84
2023/07/03 06:10:20;;;;;;;9.52;3.17;;;16.30;99.90;;;;;;5072534;28;20090;-84
2023/07/03 06:12:45;;;;;;;14.85;3.13;;;16.30;99.90;;;;;;5072636;28;20072;-83
2023/07/03 06:15:11;;;;;;;15.88;4.57;;;16.40;99.90;;;;;;5072842;28;20044;-84
2023/07/03 06:17:38;;;;;;;13.15;4.25;;;16.40;99.90;;;;;;5072380;28;20413;-83
2023/07/03 06:20:05;;;;;;;15.35;3.92;;;16.40;99.90;;;;;;5051397;28;20052;-83
2023/07/03 06:22:31;;;;;;;12.73;3.75;;;16.50;99.90;;;;;;5052381;28;20868;-83
2023/07/03 06:24:56;;;;;;;12.57;3.67;;;16.50;99.90;;;;;;5056830;28;20120;-83
2023/07/03 06:27:22;;;;;;;12.02;2.85;;;16.60;99.90;;;;;;5071551;28;20063;-83
2023/07/03 06:29:48;;;;;;;12.35;2.53;;;16.60;99.90;;;;;;5055808;28;20133;-83
2023/07/03 06:32:13;;;;;;;13.85;3.25;;;16.60;99.90;;;;;;5072263;28;20512;-83
2023/07/03 06:34:39;;;;;;;12.35;3.70;;;16.60;99.90;;;;;;5072672;28;20421;-83
2023/07/03 06:37:05;;;;;;;9.25;2.40;;;16.70;99.90;;;;;;5072027;28;20040;-84
2023/07/03 06:39:36;;;;;;;8.88;1.75;;;16.70;99.90;;;;;;5054082;28;20066;-84
2023/07/03 06:42:02;;;;;;;10.80;2.78;;;16.70;99.90;;;;;;5072005;28;20062;-83
2023/07/03 06:44:28;;;;;;;10.95;2.92;;;16.70;99.90;;;;;;5071606;28;20037;-84
2023/07/03 06:46:54;;;;;;;13.55;3.60;;;16.80;99.90;;;;;;5072351;28;20048;-84
2023/07/03 06:49:24;;;;;;;12.65;3.28;;;16.80;99.90;;;;;;5071872;28;20207;-83
2023/07/03 06:51:51;;;;;;;14.88;3.38;;;16.90;99.90;;;;;;5072022;28;20040;-84
2023/07/03 06:54:16;;;;;;;12.15;3.47;;;16.90;99.90;;;;;;5071999;28;20044;-83
2023/07/03 06:56:42;;;;;;;13.60;2.25;;;16.90;99.90;;;;;;5055127;28;20090;-84
2023/07/03 06:59:08;;;;;;;10.45;2.45;;;16.90;99.90;;;;;;5071137;28;20032;-84
2023/07/03 07:01:34;;;;;;;11.82;2.85;;;16.90;99.90;;;;;;5054769;28;20068;-84
2023/07/03 07:03:59;;;;;;;13.60;3.30;;;17.00;99.90;;;;;;5071710;28;20082;-84
2023/07/03 07:06:27;;;;;;;12.05;2.05;;;17.10;99.90;;;;;;5054800;28;20074;-84
2023/07/03 07:08:53;;;;;;;11.07;3.08;;;17.30;99.90;;;;;;5071674;28;20040;-84
2023/07/03 07:11:22;;;;;;;12.45;3.28;;;17.30;99.90;;;;;;5071558;28;20056;-84
2023/07/03 07:13:49;;;;;;;13.27;3.70;;;17.40;99.90;;;;;;5054782;28;20082;-84
2023/07/03 07:16:21;;;;;;;14.43;3.88;;;17.40;99.90;;;;;;5054725;28;20044;-84
2023/07/03 07:18:50;;;;;;;11.52;3.08;;;17.40;99.90;;;;;;5071028;28;20044;-84
2023/07/03 07:21:15;;;;;;;9.25;1.75;;;17.40;99.90;;;;;;5054104;28;20040;-83
2023/07/03 07:23:41;;;;;;;10.38;2.47;;;17.30;99.90;;;;;;5070228;28;20048;-83
2023/07/03 07:26:07;;;;;;;6.95;1.83;;;17.20;99.90;;;;;;5070716;28;20047;-83
2023/07/03 07:28:32;;;;;;;10.45;2.30;;;17.20;99.90;;;;;;5071135;28;20044;-83
2023/07/03 07:30:58;;;;;;;10.73;3.20;;;17.20;99.90;;;;;;5054544;28;20037;-84
2023/07/03 07:33:24;;;;;;;12.80;2.97;;;17.10;99.90;;;;;;5054207;28;20516;-83
2023/07/03 07:35:51;;;;;;;11.60;2.78;;;17.10;99.90;;;;;;5054452;28;20039;-83
2023/07/03 07:38:18;;;;;;;11.15;2.88;;;17.10;99.90;;;;;;5053899;28;20048;-83
2023/07/03 07:40:44;;;;;;;9.45;2.85;;;17.20;99.90;;;;;;5053551;28;20036;-83
2023/07/03 07:43:09;;;;;;;12.45;2.90;;;17.20;99.90;;;;;;5071057;28;20040;-83
2023/07/03 07:45:37;;;;;;;12.00;3.20;;;17.10;99.90;;;;;;5054010;28;20503;-83
2023/07/03 07:48:03;;;;;;;12.68;3.30;;;17.10;99.90;;;;;;5053921;28;20086;-83
2023/07/03 07:50:29;;;;;;;12.20;3.05;;;17.10;99.90;;;;;;5053999;28;20043;-83
2023/07/03 07:52:56;;;;;;;11.35;3.10;;;17.20;99.90;;;;;;5054245;28;20037;-83
2023/07/03 07:55:22;;;;;;;14.85;3.85;;;17.20;99.90;;;;;;5053939;28;20486;-84
2023/07/03 07:57:48;;;;;;;11.57;3.40;;;17.20;99.90;;;;;;5053561;28;20094;-83
2023/07/03 08:00:14;;;;;;;12.85;3.33;;;17.20;99.90;;;;;;5069101;28;20040;-83
2023/07/03 08:02:40;;;;;;;9.45;2.15;;;17.20;99.90;;;;;;5071649;28;20036;-83
2023/07/03 08:05:07;;;;;;;12.95;3.30;;;17.30;99.90;;;;;;5070148;28;20044;-84
2023/07/03 08:07:33;;;;;;;13.52;3.08;;;17.40;99.90;;;;;;5070000;28;20066;-83
2023/07/03 08:09:58;;;;;;;11.85;2.53;;;17.50;99.90;;;;;;5069757;28;20145;-84
2023/07/03 08:12:24;;;;;;;12.60;3.20;;;17.60;99.90;;;;;;5070013;28;20405;-84
2023/07/03 08:14:49;;;;;;;12.55;3.10;;;17.80;99.90;;;;;;5070257;28;20131;-83
2023/07/03 08:17:15;;;;;;;10.40;2.60;;;18.00;99.90;;;;;;5070220;28;20044;-83
2023/07/03 08:19:41;;;;;;;10.80;2.83;;;18.10;99.90;;;;;;5052576;28;20510;-84
2023/07/03 08:22:08;;;;;;;10.57;2.67;;;18.20;99.10;;;;;;5069819;28;20570;-83
2023/07/03 08:24:33;;;;;;;9.10;2.67;;;18.40;99.00;;;;;;5069245;28;20119;-83
2023/07/03 08:26:59;;;;;;;7.93;1.48;;;18.40;96.50;;;;;;5070022;28;20051;-84
2023/07/03 08:29:24;;;;;;;11.57;2.70;;;18.30;96.30;;;;;;5070066;28;20226;-83
2023/07/03 08:31:50;;;;;;;10.00;2.20;;;18.40;95.20;;;;;;5069570;28;20516;-84
2023/07/03 08:34:16;;;;;;;8.55;2.30;;;18.40;95.50;;;;;;5070065;28;20051;-83
2023/07/03 08:36:42;;;;;;;10.55;2.15;;;18.30;94.50;;;;;;5053386;28;20563;-83
2023/07/03 08:39:08;;;;;;;13.88;2.90;;;18.20;93.90;;;;;;5069646;28;20036;-84
2023/07/03 08:41:47;;;;;;;7.75;2.13;;;18.00;93.10;;;;;;5069473;28;20704;-84
2023/07/03 08:44:12;;;;;;;10.10;2.10;;;18.00;94.30;;;;;;5069353;28;20166;-83
2023/07/03 08:46:39;;;;;;;8.55;2.28;;;18.00;94.60;;;;;;5070151;28;20067;-83
2023/07/03 08:49:07;;;;;;;8.10;1.88;;;18.20;94.00;;;;;;5069294;28;20620;-84
2023/07/03 08:51:36;;;;;;;8.73;2.00;;;18.30;93.90;;;;;;5051977;28;20049;-84
2023/07/03 08:54:27;;;;;;;10.63;2.30;;;18.40;90.70;;;;;;5068616;28;20497;-84
2023/07/03 08:56:54;;;;;;;12.15;2.67;;;18.50;90.00;;;;;;5068369;28;20083;-84
2023/07/03 08:59:20;;;;;;;10.90;2.50;;;18.70;89.70;;;;;;5068468;28;20040;-84
2023/07/03 09:02:13;;;;;;;10.80;2.30;;;18.70;86.00;;;;;;5067984;28;20048;-84
2023/07/03 09:05:16;;;;;;;11.05;2.33;;;18.70;86.80;;;;;;5052020;28;20036;-84
2023/07/03 09:08:14;;;;;;;;;;;18.80;85.20;;;;;;5053504;28;20079;-84
2023/07/03 09:10:46;;;;;;;10.25;2.30;;;18.80;85.00;;;;;;4991879;28;19928;-84
2023/07/03 09:13:26;;;;;;;9.93;2.28;;;18.80;83.10;;;;;;4991814;28;20133;-84
2023/07/03 09:16:01;;;;;;;9.02;2.45;;;18.80;82.30;;;;;;4992539;28;20049;-84
2023/07/03 09:18:32;;;;;;;9.75;2.40;;;18.70;82.10;;;;;;4992235;28;20042;-84
2023/07/03 09:20:59;;;;;;;9.77;2.45;;;18.60;83.80;;;;;;4991418;28;20050;-84
2023/07/03 09:23:35;;;;;;;10.18;2.55;;;18.60;86.00;;;;;;4991958;28;20527;-84
2023/07/03 09:26:07;;;;;;;9.32;2.50;;;18.60;87.90;;;;;;4991159;28;20384;-84
2023/07/03 09:28:38;;;;;;;10.98;2.78;;;18.60;86.20;;;;;;4991466;28;20045;-84
2023/07/03 09:31:03;;;;;;;11.00;2.30;;;18.50;84.50;;;;;;4991695;28;20045;-84
2023/07/03 09:33:29;;;;;;;8.45;2.10;;;18.50;83.60;;;;;;4991691;28;20552;-84
2023/07/03 09:35:55;;;;;;;10.60;2.55;;;18.40;82.80;;;;;;4993012;28;20029;-84
2023/07/03 09:38:23;;;;;;;9.88;2.30;;;18.40;85.00;;;;;;4979345;28;20041;-84
2023/07/03 09:40:52;;;;;;;10.30;2.58;;;18.40;84.50;;;;;;4992424;28;20072;-84
2023/07/03 09:43:19;;;;;;;9.13;2.30;;;18.40;84.80;;;;;;4995384;28;20033;-84
2023/07/03 09:45:46;;;;;;;11.02;2.15;;;18.40;85.40;;;;;;4996308;28;20049;-84
2023/07/03 09:48:24;;;;;;;10.00;2.60;;;18.40;83.90;;;;;;5072239;28;20032;-84
2023/07/03 09:50:50;;;;;;;10.45;2.80;;;18.30;84.70;;;;;;5071497;28;20049;-84
2023/07/03 09:53:21;;;;;;;12.65;3.15;;;18.20;85.90;;;;;;5072388;28;20129;-85
2023/07/03 09:55:52;;;;;;;9.85;2.20;;;18.20;87.10;;;;;;5072801;28;20036;-84
2023/07/03 09:58:18;;;;;;;7.75;2.03;;;18.20;87.80;;;;;;5055590;28;20072;-84
2023/07/03 10:00:54;;;;;;;11.65;2.50;;;18.10;88.50;;;;;;5072124;28;20126;-86
2023/07/03 10:03:29;;;;;;;11.48;2.63;;;18.10;87.30;;;;;;5072199;28;20445;-84
2023/07/03 10:05:56;;;;;;;12.65;3.13;;;18.10;88.80;;;;;;5072545;28;20141;-84
2023/07/03 10:08:27;;;;;;;13.27;3.10;;;18.10;89.30;;;;;;5073911;28;20040;-84
2023/07/03 10:10:56;;;;;;;11.40;2.92;;;18.10;89.40;;;;;;5072554;28;20067;-84
2023/07/03 10:13:30;;;;;;;14.85;2.80;;;18.10;90.10;;;;;;5071096;28;20040;-84
2023/07/03 10:15:57;;;;;;;6.72;1.77;;;18.30;89.10;;;;;;5072183;28;20051;-84
2023/07/03 10:18:35;;;;;;;11.45;2.30;;;18.50;90.00;;;;;;5070862;28;20032;-84
2023/07/03 10:21:04;;;;;;;9.45;2.28;;;18.60;87.50;;;;;;5053940;28;20025;-84
2023/07/03 10:23:33;;;;;;;8.50;2.22;;;18.60;83.60;;;;;;5071568;28;20119;-84
2023/07/03 10:26:08;;;;;;;11.82;2.35;;;18.50;81.80;;;;;;5071396;28;20447;-84
2023/07/03 10:28:41;;;;;;;9.52;2.38;;;18.40;81.50;;;;;;5069196;28;20045;-84
2023/07/03 10:31:14;;;;;;;11.00;2.30;;;18.40;81.50;;;;;;5070462;28;20081;-85
2023/07/03 10:33:45;;;;;;;9.68;2.05;;;18.70;82.90;;;;;;5054445;28;20072;-84
2023/07/03 10:36:15;;;;;;;9.35;2.30;;;19.00;82.20;;;;;;5072657;28;20033;-85
2023/07/03 10:38:58;;;;;;;8.40;2.00;;;19.10;80.40;;;;;;5071454;28;20564;-84
2023/07/03 10:41:44;;;;;;;;;;;19.10;79.30;;;;;;5054979;28;20490;-84
2023/07/03 10:44:20;;;;;;;9.27;2.03;;;19.10;80.30;;;;;;5054690;28;19920;-86
2023/07/03 10:47:03;;;;;;;8.88;1.83;;;19.10;80.60;;;;;;5072860;28;20041;-86
2023/07/03 10:49:35;;;;;;;6.22;1.52;;;19.10;80.00;;;;;;5054583;28;20040;-86
2023/07/03 10:52:16;;;;;;;8.15;1.95;;;19.10;76.30;;;;;;5071839;28;20548;-86
2023/07/03 10:54:46;;;;;;;9.60;1.52;;;19.10;76.70;;;;;;5071311;28;20036;-85
2023/07/03 10:57:17;;;;;;;8.32;1.50;;;19.30;76.80;;;;;;5072285;28;20041;-86
2023/07/03 10:59:49;;;;;;;7.43;1.50;;;19.50;73.60;;;;;;5071957;28;20036;-86
2023/07/03 11:02:41;;;;;;;4.82;0.80;;;19.80;72.90;;;;;;5071033;28;20481;-86
2023/07/03 11:05:21;;;;;;;7.90;1.90;;;19.70;69.20;;;;;;5062170;28;20040;-86
2023/07/03 11:08:10;;;;;;;7.55;1.70;;;19.50;70.10;;;;;;5070563;28;20039;-85
2023/07/03 11:10:46;;;;;;;7.68;1.60;;;19.40;69.60;;;;;;5063300;28;20051;-86
2023/07/03 11:13:22;;;;;;;9.18;1.65;;;19.30;69.20;;;;;;5052305;28;20040;-86
2023/07/03 11:16:13;;;;;;;9.23;1.75;;;19.30;71.60;;;;;;5069405;28;20037;-85
2023/07/03 11:18:54;;;;;;;9.20;1.63;;;19.30;72.30;;;;;;5052640;28;20041;-85
2023/07/03 11:21:40;;;;;;;9.57;1.95;;;19.20;73.30;;;;;;5080782;28;20029;-85
2023/07/03 11:24:30;;;;;;;6.82;1.83;;;19.10;72.70;;;;;;5031192;28;20097;-85
2023/07/03 11:27:18;;;;;;;8.57;2.00;;;19.10;73.90;;;;;;5070412;28;20033;-86
2023/07/03 11:29:43;;;;;;;9.00;1.92;;;19.00;72.80;;;;;;5070543;28;20513;-86
2023/07/03 11:32:09;;;;;;;9.45;1.92;;;19.20;73.40;;;;;;5071303;28;20085;-86
2023/07/03 11:34:35;;;;;;;8.25;1.90;;;19.50;74.00;;;;;;5054897;28;20410;-86
2023/07/03 11:37:21;;;;;;;8.73;1.65;;;19.70;72.90;;;;;;5055037;28;20493;-86
2023/07/03 11:39:50;;;;;;;9.85;1.70;;;19.80;71.60;;;;;;5070405;28;20079;-85
2023/07/03 11:42:22;;;;;;;8.43;1.70;;;19.80;72.10;;;;;;5070615;28;20036;-86
2023/07/03 11:44:57;;;;;;;10.10;1.70;;;20.00;71.30;;;;;;5054383;28;20036;-86
2023/07/03 11:47:25;;;;;;;9.75;1.83;;;19.90;71.30;;;;;;5053249;28;20490;-86
2023/07/03 11:50:03;;;;;;;7.07;1.73;;;19.80;72.40;;;;;;5052988;28;20036;-86
2023/07/03 11:52:34;;;;;;;11.38;1.80;;;19.70;73.90;;;;;;5070254;28;20075;-86
2023/07/03 11:55:04;;;;;;;9.68;1.75;;;19.70;75.10;;;;;;5070574;28;20056;-86
2023/07/03 11:57:37;;;;;;;9.18;1.83;;;19.50;74.40;;;;;;5052961;28;20718;-86
2023/07/03 12:00:29;;;;;;;8.90;1.80;;;19.40;74.10;;;;;;5060689;28;20513;-86
2023/07/03 12:03:03;;;;;;;12.25;2.30;;;19.30;75.10;;;;;;5070106;28;20350;-86
2023/07/03 12:05:44;;;;;;;9.00;1.70;;;19.20;76.10;;;;;;5070345;28;20046;-86
2023/07/03 12:08:19;;;;;;;9.35;2.40;;;19.50;75.30;;;;;;5053140;28;20624;-86
2023/07/03 12:10:57;;;;;;;9.35;1.70;;;19.50;72.50;;;;;;5052524;28;20040;-86
2023/07/03 12:13:45;;;;;;;8.52;1.95;;;19.60;73.60;;;;;;5053104;28;20044;-86
2023/07/03 12:16:16;;;;;;;7.10;1.70;;;19.90;74.30;;;;;;5070430;28;20444;-86
2023/07/03 12:18:42;;;;;;;7.82;1.90;;;20.00;74.50;;;;;;5069992;28;20556;-86
2023/07/03 12:21:08;;;;;;;7.88;1.75;;;19.80;71.20;;;;;;5069193;28;20032;-86
2023/07/03 12:23:43;;;;;;;8.10;1.70;;;19.70;71.30;;;;;;5070169;28;20036;-86
2023/07/03 12:26:15;;;;;;;5.50;1.35;;;19.50;70.10;;;;;;5053368;28;20072;-86
2023/07/03 12:28:41;;;;;;;11.05;2.00;;;19.30;71.20;;;;;;5070140;28;20123;-86
2023/07/03 12:31:22;;;;;;;11.88;2.28;;;19.20;71.80;;;;;;5053376;28;20116;-86
2023/07/03 12:33:54;;;;;;;9.50;1.83;;;19.00;71.70;;;;;;5070156;28;20035;-86
2023/07/03 12:36:22;;;;;;;9.13;2.20;;;19.00;72.30;;;;;;5070428;28;20025;-86
2023/07/03 12:38:47;;;;;;;8.85;2.20;;;19.00;72.70;;;;;;5053104;28;20040;-86
2023/07/03 12:41:13;;;;;;;8.85;2.15;;;19.00;73.00;;;;;;5069210;28;20036;-86
2023/07/03 12:43:43;;;;;;;8.57;1.85;;;18.90;73.60;;;;;;5053423;28;20044;-86
2023/07/03 12:46:09;;;;;;;9.05;2.30;;;18.80;72.20;;;;;;5052772;28;20045;-86
2023/07/03 12:48:35;;;;;;;8.18;2.08;;;18.60;72.60;;;;;;5068640;28;20037;-86
2023/07/03 12:51:00;;;;;;;8.27;1.85;;;18.50;73.00;;;;;;5066069;28;20043;-86